EGAC/BHD METAR and TAF weather

Enter ICAO airport designator
Station Type Date Time Source
EGAC METAR 2020/04/05 05:50 UTC NOAA

EGAC 050550Z AUTO 14010KT 9999 NCD 08/05 Q1007


Station Type Date Time Source
EGAC Decoded METAR 2020/04/05 05:50 UTC NOAA

Belfast / Harbour, United Kingdom (EGAC) 54-36N 005-53W 0M
Apr 05, 2020 - 01:50 AM EDT / 2020.04.05 0550 UTC
Wind: from the SE (140 degrees) at 12 MPH (10 KT):0
Visibility: greater than 7 mile(s):0
Temperature: 46 F (8 C)
Dew Point: 41 F (5 C)
Relative Humidity: 81%
Pressure (altimeter): 29.74 in. Hg (1007 hPa)
ob: EGAC 050550Z AUTO 14010KT 9999 NCD 08/05 Q1007
cycle: 6

Station Type Date Time Source
EGAC TAF UTC NOAA

Error!

Example: see airport list